createdAt,value
2019-03-18T00:02:00.152Z,99.90
2019-03-18T00:07:06.340Z,99.90
2019-03-18T00:12:13.450Z,99.90
2019-03-18T00:17:19.639Z,99.90
2019-03-18T00:22:25.814Z,99.90
2019-03-18T00:27:31.876Z,99.90
2019-03-18T00:32:37.940Z,99.90
2019-03-18T00:37:44.128Z,99.90
2019-03-18T00:42:50.231Z,99.90
2019-03-18T00:47:56.287Z,99.10
2019-03-18T00:53:02.364Z,99.30
2019-03-18T00:58:08.519Z,99.90
2019-03-18T01:03:14.696Z,99.90
2019-03-18T01:08:21.909Z,99.90
2019-03-18T01:13:28.095Z,99.90
2019-03-18T01:18:34.245Z,99.90
2019-03-18T01:23:40.418Z,99.90
2019-03-18T01:28:46.430Z,99.90
2019-03-18T01:33:52.301Z,99.90
2019-03-18T01:38:58.330Z,99.90
2019-03-18T01:44:04.549Z,99.90
2019-03-18T01:49:10.645Z,99.90
2019-03-18T01:54:16.687Z,99.90
2019-03-18T01:59:22.935Z,99.90
2019-03-18T02:04:29.123Z,99.90
2019-03-18T02:09:35.215Z,99.90
2019-03-18T02:14:41.301Z,99.90
2019-03-18T02:19:47.552Z,99.90
2019-03-18T02:24:53.648Z,99.90
2019-03-18T02:29:59.713Z,99.90
2019-03-18T02:35:06.014Z,99.90
2019-03-18T02:40:12.326Z,99.90
2019-03-18T02:45:18.372Z,99.90
2019-03-18T02:50:24.422Z,99.90
2019-03-18T02:55:30.510Z,99.60
2019-03-18T03:00:36.572Z,99.90
2019-03-18T03:05:42.541Z,99.90
2019-03-18T03:10:48.538Z,98.80
2019-03-18T03:15:54.578Z,98.80
2019-03-18T03:21:00.863Z,98.30
2019-03-18T03:26:06.952Z,98.50
2019-03-18T03:31:14.169Z,98.40
2019-03-18T03:36:20.097Z,98.80
2019-03-18T03:41:26.236Z,98.10
2019-03-18T03:46:43.082Z,97.80
2019-03-18T03:51:40.028Z,97.40
2019-03-18T03:56:46.459Z,97.20
2019-03-18T04:01:52.621Z,98.30
2019-03-18T04:06:58.712Z,98.00
2019-03-18T04:12:04.717Z,99.10
2019-03-18T04:17:10.819Z,98.70
2019-03-18T04:22:17.043Z,99.40
2019-03-18T04:27:24.744Z,99.40
2019-03-18T04:32:30.947Z,98.80
2019-03-18T04:37:37.124Z,99.00
2019-03-18T04:42:43.099Z,99.20
2019-03-18T04:47:49.155Z,99.10
2019-03-18T04:52:55.238Z,98.90
2019-03-18T04:58:01.323Z,99.20
2019-03-18T05:03:07.389Z,99.40
2019-03-18T05:08:13.371Z,99.30
2019-03-18T05:13:19.680Z,99.90
2019-03-18T05:18:25.812Z,99.60
2019-03-18T05:23:31.897Z,99.30
2019-03-18T05:28:38.017Z,98.50
2019-03-18T05:33:44.099Z,99.10
2019-03-18T05:38:50.191Z,98.60
2019-03-18T05:43:56.277Z,98.20
2019-03-18T05:49:02.272Z,98.50
2019-03-18T05:54:08.342Z,98.60
2019-03-18T05:59:14.404Z,98.50
2019-03-18T06:04:20.597Z,98.30
2019-03-18T06:09:26.655Z,98.30
2019-03-18T06:14:32.891Z,98.20
2019-03-18T06:19:38.933Z,98.60
2019-03-18T06:24:44.916Z,98.00
2019-03-18T06:29:50.949Z,97.90
2019-03-18T06:34:57.043Z,97.60
2019-03-18T06:40:03.100Z,97.20
2019-03-18T06:45:09.752Z,97.60
2019-03-18T06:50:15.803Z,97.60
2019-03-18T06:55:21.939Z,97.90
2019-03-18T07:00:28.010Z,97.80
2019-03-18T07:05:34.106Z,98.10
2019-03-18T07:10:40.175Z,98.10
2019-03-18T07:15:46.273Z,98.40
2019-03-18T07:20:52.348Z,97.70
2019-03-18T07:25:58.516Z,97.70
2019-03-18T07:31:04.703Z,97.60
2019-03-18T07:36:10.770Z,97.40
2019-03-18T07:41:16.890Z,97.00
2019-03-18T07:46:22.941Z,97.10
2019-03-18T07:51:28.976Z,96.70
2019-03-18T07:56:35.156Z,96.40
2019-03-18T08:01:42.178Z,96.60
2019-03-18T08:06:48.329Z,96.40
2019-03-18T08:11:54.511Z,95.90
2019-03-18T08:17:00.597Z,95.30
2019-03-18T08:22:06.689Z,95.10
2019-03-18T08:27:12.822Z,94.70
2019-03-18T08:32:19.003Z,94.00
2019-03-18T08:37:25.014Z,93.30
2019-03-18T08:42:30.976Z,93.00
2019-03-18T08:47:37.052Z,92.90
2019-03-18T08:52:43.317Z,92.30
2019-03-18T08:57:50.593Z,92.50
2019-03-18T09:02:56.576Z,90.70
2019-03-18T09:08:02.565Z,91.00
2019-03-18T09:13:08.591Z,89.00
2019-03-18T09:18:14.821Z,88.20
2019-03-18T09:23:21.014Z,87.70
2019-03-18T09:28:27.123Z,90.00
2019-03-18T09:33:33.064Z,91.00
2019-03-18T09:38:39.315Z,90.10
2019-03-18T09:43:45.480Z,90.10
2019-03-18T09:48:51.598Z,90.90
2019-03-18T09:53:57.452Z,91.60
2019-03-18T09:59:03.615Z,92.50
2019-03-18T10:04:09.779Z,93.20
2019-03-18T10:09:15.904Z,91.60
2019-03-18T10:14:21.965Z,93.00
2019-03-18T10:19:33.380Z,91.60
2019-03-18T10:24:35.929Z,91.70
2019-03-18T10:29:42.147Z,92.30
2019-03-18T10:34:48.088Z,91.10
2019-03-18T10:39:53.984Z,92.40
2019-03-18T10:45:00.334Z,85.00
2019-03-18T10:50:07.259Z,77.70
2019-03-18T10:55:13.460Z,81.60
2019-03-18T11:00:19.489Z,88.40
2019-03-18T11:05:25.567Z,90.80
2019-03-18T11:10:31.671Z,91.50
2019-03-18T11:15:37.800Z,92.70
2019-03-18T11:20:43.996Z,91.90
2019-03-18T11:25:50.001Z,90.50
2019-03-18T11:30:55.936Z,88.40
2019-03-18T11:36:02.098Z,87.40
2019-03-18T11:41:08.280Z,88.40
2019-03-18T11:46:14.381Z,87.00
2019-03-18T11:51:20.537Z,86.00
2019-03-18T11:56:26.733Z,74.30
2019-03-18T12:01:32.785Z,68.20
2019-03-18T12:06:38.927Z,76.70
2019-03-18T12:11:45.989Z,83.50
2019-03-18T12:16:52.054Z,88.90
2019-03-18T12:21:58.205Z,88.30
2019-03-18T12:27:04.398Z,94.20
2019-03-18T12:32:10.388Z,99.90
2019-03-18T12:37:16.503Z,99.00
2019-03-18T12:42:22.450Z,91.90
2019-03-18T12:47:28.515Z,85.60
2019-03-18T12:52:34.601Z,89.10
2019-03-18T12:57:40.760Z,91.30
2019-03-18T13:02:46.928Z,88.50
2019-03-18T13:07:52.999Z,91.20
2019-03-18T13:12:59.096Z,92.00
2019-03-18T13:18:05.245Z,90.20
2019-03-18T13:23:11.337Z,85.90
2019-03-18T13:28:17.380Z,90.60
2019-03-18T13:33:23.461Z,95.60
2019-03-18T13:38:29.553Z,98.50
2019-03-18T13:43:35.737Z,99.60
2019-03-18T13:48:41.823Z,99.00
2019-03-18T13:53:47.881Z,99.00
2019-03-18T13:58:53.981Z,99.90
2019-03-18T14:04:00.133Z,99.30
2019-03-18T14:09:08.214Z,96.90
2019-03-18T14:14:14.217Z,96.30
2019-03-18T14:19:20.233Z,96.80
2019-03-18T14:24:26.291Z,95.40
2019-03-18T14:29:32.376Z,99.90
2019-03-18T14:34:38.433Z,99.90
2019-03-18T14:39:44.516Z,99.90
2019-03-18T14:44:50.564Z,99.90
2019-03-18T14:49:56.568Z,99.90
2019-03-18T14:55:02.676Z,99.90
2019-03-18T15:00:14.732Z,99.90
2019-03-18T15:05:20.793Z,99.90
2019-03-18T15:10:26.766Z,99.90
2019-03-18T15:15:32.885Z,99.90
2019-03-18T15:20:39.056Z,99.90
2019-03-18T15:25:45.306Z,99.90
2019-03-18T15:30:51.481Z,99.90
2019-03-18T15:35:57.683Z,99.90
2019-03-18T15:41:03.769Z,99.90
2019-03-18T15:46:09.877Z,99.90
2019-03-18T15:51:15.886Z,99.90
2019-03-18T15:56:22.090Z,99.90
2019-03-18T16:01:28.237Z,99.90
2019-03-18T16:06:34.336Z,99.90
2019-03-18T16:11:40.402Z,99.90
2019-03-18T16:16:46.476Z,99.90
2019-03-18T16:21:52.702Z,99.90
2019-03-18T16:26:58.939Z,99.90
2019-03-18T16:32:11.254Z,99.90
2019-03-18T16:37:12.706Z,99.90
2019-03-18T16:42:18.795Z,99.90
2019-03-18T16:58:35.717Z,99.60
2019-03-18T17:14:37.465Z,99.60
2019-03-18T17:25:17.798Z,99.60
2019-03-18T17:30:26.463Z,99.60
2019-03-18T17:35:31.790Z,99.90
2019-03-18T17:57:07.039Z,99.90
2019-03-18T18:02:09.242Z,99.90
2019-03-18T18:07:15.470Z,99.90
2019-03-18T18:12:21.834Z,99.90
2019-03-18T18:17:27.922Z,99.90
2019-03-18T18:22:35.438Z,99.90
2019-03-18T18:27:41.544Z,99.90
2019-03-18T18:32:47.901Z,99.90
2019-03-18T18:37:54.050Z,99.90
2019-03-18T18:43:01.767Z,99.90
2019-03-18T18:48:09.824Z,99.90
2019-03-18T18:53:25.790Z,99.90
2019-03-18T18:58:24.284Z,99.90
2019-03-18T19:03:30.574Z,99.90
2019-03-18T19:08:36.778Z,99.90
2019-03-18T19:13:42.991Z,99.90
2019-03-18T19:18:49.013Z,99.90
2019-03-18T19:23:55.296Z,99.90
2019-03-18T19:29:01.440Z,99.90
2019-03-18T19:34:07.655Z,99.90
2019-03-18T19:39:13.729Z,99.90
2019-03-18T19:44:19.793Z,99.90
2019-03-18T19:49:25.858Z,99.90
2019-03-18T19:54:31.988Z,99.90
2019-03-18T19:59:38.057Z,99.90
2019-03-18T20:04:44.073Z,99.90
2019-03-18T20:09:50.217Z,99.90
2019-03-18T20:14:56.283Z,99.90
2019-03-18T20:20:02.428Z,99.90
2019-03-18T20:25:09.126Z,99.90
2019-03-18T20:30:16.005Z,99.90
2019-03-18T20:35:22.145Z,99.90
2019-03-18T20:40:28.272Z,99.90
2019-03-18T20:45:35.438Z,99.90
2019-03-18T20:50:41.639Z,99.90
2019-03-18T20:55:47.882Z,99.90
2019-03-18T21:00:54.008Z,99.90
2019-03-18T21:06:00.060Z,99.90
2019-03-18T21:11:06.204Z,99.90
2019-03-18T21:16:12.288Z,99.90
2019-03-18T21:21:18.417Z,99.90
2019-03-18T21:26:24.475Z,99.90
2019-03-18T21:31:30.754Z,99.90
2019-03-18T21:36:38.112Z,99.90
2019-03-18T21:41:44.509Z,99.90
2019-03-18T21:46:50.766Z,99.90
2019-03-18T21:51:56.886Z,99.90
2019-03-18T21:57:02.964Z,99.90
2019-03-18T22:02:09.113Z,99.90
2019-03-18T22:07:15.304Z,99.90
2019-03-18T22:12:21.366Z,99.90
2019-03-18T22:17:28.478Z,99.90
2019-03-18T22:22:34.642Z,99.90
2019-03-18T22:27:40.821Z,99.90
2019-03-18T22:32:47.326Z,99.90
2019-03-18T22:37:53.522Z,99.90
2019-03-18T22:42:59.615Z,99.90
2019-03-18T22:48:05.844Z,99.90
2019-03-18T22:53:11.921Z,99.90
2019-03-18T22:58:19.420Z,99.90
2019-03-18T23:03:26.744Z,99.90
2019-03-18T23:08:32.812Z,99.90
2019-03-18T23:13:38.874Z,99.90
2019-03-18T23:18:44.945Z,99.90
2019-03-18T23:23:51.055Z,99.90
2019-03-18T23:28:57.153Z,99.90
2019-03-18T23:34:03.214Z,99.90
2019-03-18T23:39:09.954Z,99.90
2019-03-18T23:44:16.083Z,99.90
2019-03-18T23:49:22.128Z,99.90
2019-03-18T23:54:28.314Z,99.90
2019-03-18T23:59:34.461Z,99.90
